Time;durP1;ratioP1;P1;durP2;ratioP2;P2;SDS_P1;SDS_P2;PMS_P1;PMS_P2;Temp;Humidity;BMP_temperature;BMP_pressure;BME280_temperature;BME280_humidity;BME280_pressure;Samples;Min_cycle;Max_cycle;Signal;HPM_P1;HPM_P2
2021/03/13 00:02:22;;;;;;;56.47;16.30;;;;;;;;;;4995713;28;20033;-76
2021/03/13 00:04:48;;;;;;;41.05;11.95;;;;;;;;;;4978964;28;20387;-76
2021/03/13 00:07:14;;;;;;;32.80;10.40;;;;;;;;;;4996519;28;20040;-76
2021/03/13 00:09:40;;;;;;;31.65;10.02;;;;;;;;;;4979129;28;20022;-76
2021/03/13 00:12:09;;;;;;;28.55;9.63;;;;;;;;;;4979026;28;20030;-77
2021/03/13 00:14:35;;;;;;;21.92;7.22;;;;;;;;;;4996508;28;20355;-77
2021/03/13 00:17:01;;;;;;;14.38;5.53;;;;;;;;;;4978999;28;20081;-78
2021/03/13 00:19:27;;;;;;;23.83;6.72;;;;;;;;;;4978987;28;20030;-80
2021/03/13 00:21:53;;;;;;;18.08;6.25;;;;;;;;;;4978766;28;20022;-78
2021/03/13 00:24:19;;;;;;;20.80;6.95;;;;;;;;;;4995953;28;20056;-79
2021/03/13 00:26:46;;;;;;;24.23;8.25;;;;;;;;;;4996927;28;20058;-79
2021/03/13 00:29:12;;;;;;;20.23;7.05;;;;;;;;;;4996274;28;20406;-79
2021/03/13 00:31:39;;;;;;;14.77;5.68;;;;;;;;;;4996714;28;20031;-79
2021/03/13 00:34:05;;;;;;;15.80;5.28;;;;;;;;;;4996196;28;20023;-79
2021/03/13 00:36:31;;;;;;;15.43;6.18;;;;;;;;;;4996375;28;20121;-78
2021/03/13 00:38:57;;;;;;;20.42;5.45;;;;;;;;;;4996198;28;20101;-78
2021/03/13 00:41:24;;;;;;;14.93;5.80;;;;;;;;;;4996046;28;20026;-79
2021/03/13 00:43:50;;;;;;;18.38;6.10;;;;;;;;;;4995995;28;20085;-79
2021/03/13 00:46:16;;;;;;;13.98;5.63;;;;;;;;;;4995949;28;20058;-78
2021/03/13 00:48:43;;;;;;;20.17;8.32;;;;;;;;;;4995984;28;20030;-79
2021/03/13 00:51:09;;;;;;;19.17;6.65;;;;;;;;;;4996390;28;20064;-77
2021/03/13 00:53:35;;;;;;;25.85;6.53;;;;;;;;;;4995896;28;20030;-79
2021/03/13 00:56:02;;;;;;;17.92;6.78;;;;;;;;;;4995753;28;20490;-78
2021/03/13 00:58:28;;;;;;;17.80;6.45;;;;;;;;;;4978309;28;20112;-78
2021/03/13 01:00:54;;;;;;;13.57;5.95;;;;;;;;;;4978223;28;20034;-79
2021/03/13 01:03:20;;;;;;;15.13;5.82;;;;;;;;;;4978193;28;20497;-79
2021/03/13 01:05:46;;;;;;;13.52;5.70;;;;;;;;;;4996112;28;20460;-77
2021/03/13 01:08:12;;;;;;;14.75;5.25;;;;;;;;;;4978007;28;20030;-78
2021/03/13 01:10:40;;;;;;;13.98;5.20;;;;;;;;;;4978058;28;20045;-79
2021/03/13 01:13:06;;;;;;;15.63;5.28;;;;;;;;;;4995349;28;20427;-77
2021/03/13 01:15:33;;;;;;;13.15;5.28;;;;;;;;;;4977823;28;20030;-77
2021/03/13 01:18:00;;;;;;;10.35;4.72;;;;;;;;;;4995330;28;20161;-79
2021/03/13 01:20:26;;;;;;;18.40;6.22;;;;;;;;;;4995179;28;20103;-77
2021/03/13 01:22:53;;;;;;;13.55;5.68;;;;;;;;;;4977711;28;20034;-79
2021/03/13 01:25:19;;;;;;;10.07;4.82;;;;;;;;;;4995001;28;20050;-77
2021/03/13 01:27:46;;;;;;;20.83;5.90;;;;;;;;;;4977707;28;20058;-78
2021/03/13 01:30:16;;;;;;;18.27;5.05;;;;;;;;;;4995046;28;20033;-78
2021/03/13 01:32:42;;;;;;;9.48;4.05;;;;;;;;;;4977637;28;20053;-78
2021/03/13 01:35:09;;;;;;;10.55;5.10;;;;;;;;;;4977572;28;20118;-79
2021/03/13 01:37:37;;;;;;;13.25;4.72;;;;;;;;;;4976827;28;20530;-76
2021/03/13 01:40:06;;;;;;;10.05;4.18;;;;;;;;;;4977576;28;20069;-77
2021/03/13 01:42:32;;;;;;;16.08;4.72;;;;;;;;;;4977662;28;20054;-79
2021/03/13 01:44:59;;;;;;;12.10;4.70;;;;;;;;;;4977405;28;20113;-78
2021/03/13 01:47:28;;;;;;;14.25;4.57;;;;;;;;;;4995236;28;20388;-76
2021/03/13 01:49:55;;;;;;;16.40;4.70;;;;;;;;;;4977305;28;20453;-79
2021/03/13 01:52:21;;;;;;;8.15;3.55;;;;;;;;;;4994491;28;20034;-79
2021/03/13 01:54:48;;;;;;;11.00;4.57;;;;;;;;;;4994612;28;20035;-79
2021/03/13 01:57:18;;;;;;;12.60;5.15;;;;;;;;;;4994636;28;20460;-79
2021/03/13 01:59:44;;;;;;;13.27;4.72;;;;;;;;;;4977109;28;20030;-78
2021/03/13 02:02:12;;;;;;;13.98;4.70;;;;;;;;;;4977036;28;20026;-79
2021/03/13 02:04:38;;;;;;;11.57;4.10;;;;;;;;;;4994497;28;20038;-78
2021/03/13 02:07:13;;;;;;;11.88;4.72;;;;;;;;;;4994422;28;20551;-78
2021/03/13 02:09:48;;;;;;;9.13;4.43;;;;;;;;;;4994543;28;20027;-79
2021/03/13 02:12:24;;;;;;;9.02;4.07;;;;;;;;;;4977164;28;20030;-78
2021/03/13 02:14:58;;;;;;;10.13;4.22;;;;;;;;;;4977290;28;20026;-78
2021/03/13 02:17:41;;;;;;;11.15;4.07;;;;;;;;;;4977010;28;20039;-77
2021/03/13 02:20:19;;;;;;;10.38;5.20;;;;;;;;;;4994430;28;20495;-77
2021/03/13 02:22:48;;;;;;;14.52;4.97;;;;;;;;;;4976843;28;20022;-79
2021/03/13 02:25:23;;;;;;;18.52;4.97;;;;;;;;;;4973279;28;20526;-80
2021/03/13 02:27:53;;;;;;;12.40;5.20;;;;;;;;;;4973536;28;20029;-81
2021/03/13 02:30:21;;;;;;;9.15;4.35;;;;;;;;;;4974297;28;20042;-78
2021/03/13 02:33:05;;;;;;;12.50;4.35;;;;;;;;;;4973505;28;20025;-79
2021/03/13 02:35:33;;;;;;;11.75;4.35;;;;;;;;;;4974556;28;20022;-78
2021/03/13 02:38:01;;;;;;;11.88;4.55;;;;;;;;;;4973397;28;20050;-80
2021/03/13 02:40:29;;;;;;;12.15;4.30;;;;;;;;;;4974596;28;20497;-80
2021/03/13 02:42:56;;;;;;;9.00;4.38;;;;;;;;;;4975037;28;20365;-80
2021/03/13 02:45:24;;;;;;;11.32;4.25;;;;;;;;;;4974619;28;20042;-78
2021/03/13 02:47:52;;;;;;;8.32;3.83;;;;;;;;;;4974861;28;20034;-78
2021/03/13 02:50:18;;;;;;;11.23;3.92;;;;;;;;;;4979799;28;20027;-77
2021/03/13 02:52:44;;;;;;;17.27;4.95;;;;;;;;;;4979744;28;20026;-77
2021/03/13 02:55:12;;;;;;;8.55;3.97;;;;;;;;;;4979613;28;20472;-77
2021/03/13 02:57:39;;;;;;;8.57;3.38;;;;;;;;;;4979749;28;20438;-76
2021/03/13 03:00:06;;;;;;;7.32;3.17;;;;;;;;;;4979672;28;20059;-76
2021/03/13 03:02:33;;;;;;;7.30;3.67;;;;;;;;;;4979892;28;20027;-77
2021/03/13 03:05:01;;;;;;;7.50;3.70;;;;;;;;;;4981075;28;20051;-79
2021/03/13 03:07:27;;;;;;;9.20;4.13;;;;;;;;;;4979545;28;20046;-76
2021/03/13 03:09:54;;;;;;;9.32;4.50;;;;;;;;;;4979585;28;20066;-79
2021/03/13 03:12:21;;;;;;;9.98;3.92;;;;;;;;;;4980883;28;20027;-79
2021/03/13 03:14:48;;;;;;;8.13;3.30;;;;;;;;;;4980766;28;20058;-77
2021/03/13 03:17:15;;;;;;;7.90;3.95;;;;;;;;;;4979471;28;20373;-77
2021/03/13 03:19:42;;;;;;;8.43;4.10;;;;;;;;;;4979536;28;20030;-78
2021/03/13 03:22:08;;;;;;;9.02;4.10;;;;;;;;;;4980800;28;20027;-78
2021/03/13 03:24:35;;;;;;;12.40;5.00;;;;;;;;;;4991666;28;20058;-79
2021/03/13 03:27:01;;;;;;;11.82;4.90;;;;;;;;;;5000148;28;20060;-78
2021/03/13 03:29:28;;;;;;;15.77;4.88;;;;;;;;;;5000036;28;20026;-79
2021/03/13 03:31:54;;;;;;;16.48;5.25;;;;;;;;;;5000663;28;20103;-77
2021/03/13 03:34:21;;;;;;;10.30;4.22;;;;;;;;;;4982585;28;20053;-78
2021/03/13 03:36:47;;;;;;;13.13;4.97;;;;;;;;;;4999898;28;20034;-80
2021/03/13 03:39:13;;;;;;;11.38;4.63;;;;;;;;;;5000247;28;20100;-79
2021/03/13 03:41:43;;;;;;;10.55;5.00;;;;;;;;;;4982605;28;20480;-77
2021/03/13 03:44:10;;;;;;;12.20;5.30;;;;;;;;;;5000570;28;20030;-75
2021/03/13 03:46:37;;;;;;;13.85;5.53;;;;;;;;;;5000462;28;20038;-79
2021/03/13 03:49:07;;;;;;;11.48;4.47;;;;;;;;;;5000104;28;20089;-79
2021/03/13 03:51:34;;;;;;;11.95;4.93;;;;;;;;;;4982481;28;20026;-80
2021/03/13 03:54:03;;;;;;;11.40;4.60;;;;;;;;;;4982408;28;20027;-79
2021/03/13 03:56:30;;;;;;;12.15;3.30;;;;;;;;;;4982329;28;20031;-77
2021/03/13 03:58:57;;;;;;;10.18;5.32;;;;;;;;;;4999955;28;20034;-80
2021/03/13 04:01:24;;;;;;;10.07;4.45;;;;;;;;;;4996788;28;20423;-79
2021/03/13 04:03:53;;;;;;;10.23;4.60;;;;;;;;;;4979316;28;20026;-80
2021/03/13 04:06:20;;;;;;;14.50;4.75;;;;;;;;;;4997149;28;20038;-80
2021/03/13 04:08:47;;;;;;;11.48;4.15;;;;;;;;;;4996972;28;20030;-80
2021/03/13 04:11:21;;;;;;;12.00;3.90;;;;;;;;;;4996629;28;20039;-80
2021/03/13 04:13:48;;;;;;;9.65;3.90;;;;;;;;;;4979238;28;20026;-79
2021/03/13 04:16:15;;;;;;;9.50;3.78;;;;;;;;;;4979077;28;20043;-79
2021/03/13 04:18:42;;;;;;;5.80;3.13;;;;;;;;;;4979167;28;20037;-80
2021/03/13 04:21:09;;;;;;;8.07;4.47;;;;;;;;;;4979196;28;20552;-76
2021/03/13 04:23:37;;;;;;;8.25;3.47;;;;;;;;;;4978797;28;20038;-80
2021/03/13 04:26:03;;;;;;;10.90;3.85;;;;;;;;;;4979011;28;20486;-79
2021/03/13 04:28:29;;;;;;;9.85;4.70;;;;;;;;;;4978818;28;20030;-78
2021/03/13 04:30:55;;;;;;;11.18;4.50;;;;;;;;;;4996353;28;20030;-79
2021/03/13 04:33:22;;;;;;;9.88;3.97;;;;;;;;;;4978834;28;20081;-76
2021/03/13 04:35:50;;;;;;;8.10;3.70;;;;;;;;;;4978757;28;20040;-78
2021/03/13 04:38:19;;;;;;;8.57;3.75;;;;;;;;;;4978726;28;20030;-77
2021/03/13 04:40:46;;;;;;;11.48;4.50;;;;;;;;;;4978539;28;20546;-78
2021/03/13 04:43:13;;;;;;;10.93;3.38;;;;;;;;;;4978566;28;20069;-77
2021/03/13 04:45:41;;;;;;;10.35;3.85;;;;;;;;;;4978474;28;20537;-79
2021/03/13 04:48:07;;;;;;;10.65;4.20;;;;;;;;;;4978583;28;20026;-80
2021/03/13 04:50:33;;;;;;;10.30;4.45;;;;;;;;;;4978474;28;20125;-76
2021/03/13 04:52:59;;;;;;;8.52;3.35;;;;;;;;;;4996409;28;20418;-78
2021/03/13 04:55:25;;;;;;;14.32;3.97;;;;;;;;;;4995868;28;20092;-78
2021/03/13 04:57:52;;;;;;;14.40;5.28;;;;;;;;;;4978292;28;20072;-76
2021/03/13 05:00:18;;;;;;;6.55;3.05;;;;;;;;;;4978968;28;20124;-80
2021/03/13 05:02:44;;;;;;;8.52;3.65;;;;;;;;;;4995655;28;20026;-80
2021/03/13 05:05:11;;;;;;;12.38;4.32;;;;;;;;;;4996051;28;20026;-80
2021/03/13 05:07:37;;;;;;;11.00;4.15;;;;;;;;;;4995742;28;20070;-77
2021/03/13 05:10:04;;;;;;;7.75;3.97;;;;;;;;;;4977939;28;20054;-79
2021/03/13 05:12:30;;;;;;;10.18;4.22;;;;;;;;;;4976883;28;20105;-78
2021/03/13 05:14:56;;;;;;;8.70;3.20;;;;;;;;;;4978047;28;20018;-80
2021/03/13 05:17:23;;;;;;;12.20;4.55;;;;;;;;;;4977952;28;20479;-79
2021/03/13 05:19:49;;;;;;;11.55;4.10;;;;;;;;;;4996356;28;20441;-81
2021/03/13 05:22:15;;;;;;;13.07;4.47;;;;;;;;;;4996609;28;20022;-84
2021/03/13 05:24:41;;;;;;;10.98;4.63;;;;;;;;;;4979809;28;20466;-88
2021/03/13 05:27:08;;;;;;;8.20;3.17;;;;;;;;;;4978966;28;20034;-91
2021/03/13 05:29:34;;;;;;;7.63;3.92;;;;;;;;;;4976869;28;20081;-87
2021/03/13 05:32:00;;;;;;;8.93;4.60;;;;;;;;;;4977336;28;20041;-88
2021/03/13 05:34:26;;;;;;;13.35;4.40;;;;;;;;;;4975895;28;20472;-84
2021/03/13 05:36:52;;;;;;;13.15;4.13;;;;;;;;;;4975110;28;20033;-86
2021/03/13 05:39:18;;;;;;;16.20;4.88;;;;;;;;;;4976804;28;20052;-84
2021/03/13 05:41:46;;;;;;;10.60;4.35;;;;;;;;;;4974888;28;20035;-88
2021/03/13 05:44:13;;;;;;;9.98;4.63;;;;;;;;;;4975914;28;20023;-85
2021/03/13 05:46:41;;;;;;;11.45;4.28;;;;;;;;;;4974927;28;20039;-85
2021/03/13 05:49:08;;;;;;;15.40;4.82;;;;;;;;;;4974755;28;20022;-84
2021/03/13 05:51:38;;;;;;;10.02;3.67;;;;;;;;;;4975804;28;20041;-86
2021/03/13 05:54:06;;;;;;;9.60;3.80;;;;;;;;;;4974925;28;20045;-86
2021/03/13 05:56:32;;;;;;;11.20;4.45;;;;;;;;;;4974574;28;20037;-85
2021/03/13 05:58:59;;;;;;;7.00;3.70;;;;;;;;;;4974165;28;20023;-84
2021/03/13 06:01:29;;;;;;;5.65;3.03;;;;;;;;;;4974438;28;20134;-85
2021/03/13 06:03:56;;;;;;;8.30;4.32;;;;;;;;;;4974361;28;20027;-85
2021/03/13 06:06:23;;;;;;;5.72;2.30;;;;;;;;;;4974725;28;20407;-87
2021/03/13 06:08:49;;;;;;;9.90;3.17;;;;;;;;;;4974744;28;20031;-87
2021/03/13 06:11:19;;;;;;;8.23;2.70;;;;;;;;;;4975106;28;20014;-87
2021/03/13 06:13:46;;;;;;;6.72;3.20;;;;;;;;;;4975507;28;20030;-87
2021/03/13 06:16:12;;;;;;;6.88;3.10;;;;;;;;;;4975684;28;20109;-87
2021/03/13 06:18:50;;;;;;;8.57;3.15;;;;;;;;;;4974773;28;20097;-86
2021/03/13 06:21:31;;;;;;;4.80;2.30;;;;;;;;;;4974630;28;20027;-86
2021/03/13 06:23:58;;;;;;;4.18;2.25;;;;;;;;;;4983224;28;20033;-84
2021/03/13 06:26:25;;;;;;;7.57;2.63;;;;;;;;;;4992664;28;20046;-87
2021/03/13 06:28:52;;;;;;;7.93;2.83;;;;;;;;;;4975066;28;20468;-82
2021/03/13 06:31:25;;;;;;;12.80;2.58;;;;;;;;;;4974443;28;20038;-86
2021/03/13 06:33:51;;;;;;;4.43;2.38;;;;;;;;;;4974454;28;20476;-85
2021/03/13 06:36:22;;;;;;;8.57;2.75;;;;;;;;;;4976094;28;20023;-90
2021/03/13 06:38:48;;;;;;;14.25;6.03;;;;;;;;;;4973968;28;20468;-86
2021/03/13 06:41:16;;;;;;;15.65;6.72;;;;;;;;;;4973777;28;20031;-86
2021/03/13 06:43:43;;;;;;;13.38;6.10;;;;;;;;;;4973714;28;20027;-80
2021/03/13 06:46:13;;;;;;;9.93;4.65;;;;;;;;;;4973643;28;20069;-82
2021/03/13 06:48:40;;;;;;;7.55;3.20;;;;;;;;;;4975064;28;20027;-85
2021/03/13 06:51:20;;;;;;;7.20;3.65;;;;;;;;;;4979020;28;20184;-79
2021/03/13 06:53:58;;;;;;;14.23;5.88;;;;;;;;;;4978792;28;20062;-88
2021/03/13 06:56:32;;;;;;;11.07;3.97;;;;;;;;;;4974464;28;20499;-87
2021/03/13 06:58:59;;;;;;;10.95;4.10;;;;;;;;;;4973724;28;20034;-79
2021/03/13 07:01:32;;;;;;;7.75;3.47;;;;;;;;;;4973316;28;20041;-82
2021/03/13 07:03:59;;;;;;;119.65;57.22;;;;;;;;;;4973316;28;20133;-79
2021/03/13 07:06:26;;;;;;;92.05;35.40;;;;;;;;;;4974845;28;20074;-84
2021/03/13 07:08:53;;;;;;;22.38;9.65;;;;;;;;;;4975154;28;20027;-85
2021/03/13 07:11:24;;;;;;;80.07;32.42;;;;;;;;;;4975563;28;20034;-86
2021/03/13 07:13:55;;;;;;;14.35;5.78;;;;;;;;;;4974531;28;20081;-86
2021/03/13 07:16:27;;;;;;;39.35;16.27;;;;;;;;;;4975642;28;20082;-87
2021/03/13 07:18:54;;;;;;;28.70;15.55;;;;;;;;;;4973758;28;20031;-85
2021/03/13 07:21:21;;;;;;;13.30;6.35;;;;;;;;;;4974110;28;20027;-86
2021/03/13 07:24:08;;;;;;;8.57;4.15;;;;;;;;;;4973138;28;20101;-83
2021/03/13 07:26:39;;;;;;;8.07;3.80;;;;;;;;;;4973315;28;20039;-86
2021/03/13 07:29:06;;;;;;;3.92;2.03;;;;;;;;;;4973730;28;20038;-84
2021/03/13 07:31:58;;;;;;;7.30;1.83;;;;;;;;;;4975317;28;20031;-85
2021/03/13 07:34:29;;;;;;;7.07;2.42;;;;;;;;;;4973473;28;20082;-87
2021/03/13 07:36:57;;;;;;;4.43;1.73;;;;;;;;;;4979150;28;20026;-86
2021/03/13 07:39:34;;;;;;;5.35;2.03;;;;;;;;;;4978521;28;20036;-83
2021/03/13 07:42:15;;;;;;;3.83;1.73;;;;;;;;;;4978741;28;20050;-89
2021/03/13 07:44:41;;;;;;;4.95;2.20;;;;;;;;;;4977143;28;20037;-83
2021/03/13 07:47:10;;;;;;;5.38;2.42;;;;;;;;;;4978433;28;20035;-85
2021/03/13 07:49:37;;;;;;;5.22;2.33;;;;;;;;;;4978006;28;20031;-86
2021/03/13 07:52:04;;;;;;;9.32;3.97;;;;;;;;;;4981126;28;20038;-83
2021/03/13 07:54:30;;;;;;;7.95;3.00;;;;;;;;;;4996716;28;20165;-83
2021/03/13 07:56:59;;;;;;;3.97;2.22;;;;;;;;;;4994825;28;20041;-84
2021/03/13 07:59:42;;;;;;;3.83;1.85;;;;;;;;;;4983453;28;20490;-81
2021/03/13 08:02:08;;;;;;;3.85;1.83;;;;;;;;;;5009548;28;20061;-85
2021/03/13 08:04:43;;;;;;;9.40;1.80;;;;;;;;;;4991353;28;20034;-84
2021/03/13 08:07:10;;;;;;;6.60;1.77;;;;;;;;;;4983024;28;20042;-81
2021/03/13 08:09:43;;;;;;;3.17;1.80;;;;;;;;;;4996454;28;20019;-90
2021/03/13 08:12:10;;;;;;;3.30;1.63;;;;;;;;;;4988683;28;20030;-89
2021/03/13 08:14:37;;;;;;;2.67;1.38;;;;;;;;;;4988077;28;20494;-89
2021/03/13 08:17:07;;;;;;;3.53;1.60;;;;;;;;;;4995586;28;20069;-87
2021/03/13 08:19:40;;;;;;;3.55;1.40;;;;;;;;;;4983383;28;20029;-87
2021/03/13 08:22:21;;;;;;;2.53;1.30;;;;;;;;;;4992259;28;20031;-84
2021/03/13 08:24:54;;;;;;;3.25;1.40;;;;;;;;;;4993026;28;20060;-89
2021/03/13 08:27:38;;;;;;;2.92;1.38;;;;;;;;;;4982460;28;20093;-89
2021/03/13 08:30:25;;;;;;;3.08;1.55;;;;;;;;;;4987652;28;20037;-88
2021/03/13 08:33:07;;;;;;;4.45;1.88;;;;;;;;;;4993890;28;20038;-88
2021/03/13 08:35:38;;;;;;;3.35;1.63;;;;;;;;;;4986587;28;20069;-89
2021/03/13 08:38:05;;;;;;;3.95;1.80;;;;;;;;;;4991480;28;20038;-90
2021/03/13 08:40:31;;;;;;;3.13;1.60;;;;;;;;;;4992331;28;20046;-86
2021/03/13 08:42:57;;;;;;;2.95;1.48;;;;;;;;;;4984334;28;20373;-82
2021/03/13 08:45:24;;;;;;;4.07;1.65;;;;;;;;;;5018828;28;20102;-87
2021/03/13 08:47:54;;;;;;;3.08;1.50;;;;;;;;;;4987851;28;20038;-88
2021/03/13 08:50:39;;;;;;;5.15;1.90;;;;;;;;;;4990279;28;20030;-89
2021/03/13 08:53:24;;;;;;;5.43;1.88;;;;;;;;;;5004490;28;20030;-91
2021/03/13 08:55:50;;;;;;;4.30;1.88;;;;;;;;;;4986665;28;20025;-90
2021/03/13 08:58:35;;;;;;;2.40;1.50;;;;;;;;;;4988693;28;20109;-88
2021/03/13 09:01:14;;;;;;;3.00;1.80;;;;;;;;;;4995310;28;20399;-88
2021/03/13 09:03:47;;;;;;;5.72;2.20;;;;;;;;;;4988533;28;20018;-87
2021/03/13 09:06:13;;;;;;;2.35;1.33;;;;;;;;;;4988452;28;21403;-87
2021/03/13 09:08:40;;;;;;;3.28;1.55;;;;;;;;;;4975877;28;20031;-89
2021/03/13 09:11:06;;;;;;;4.60;1.67;;;;;;;;;;4982103;28;20019;-86
2021/03/13 09:13:32;;;;;;;2.42;1.25;;;;;;;;;;4984761;28;20023;-84
2021/03/13 09:15:58;;;;;;;3.63;1.40;;;;;;;;;;4975530;28;20083;-88
2021/03/13 09:18:25;;;;;;;2.80;1.50;;;;;;;;;;5007244;28;20065;-88
2021/03/13 09:20:51;;;;;;;2.35;1.13;;;;;;;;;;4983619;28;20038;-82
2021/03/13 09:23:17;;;;;;;3.65;1.48;;;;;;;;;;4994545;28;20109;-86
2021/03/13 09:25:43;;;;;;;5.13;1.52;;;;;;;;;;4984694;28;20041;-90
2021/03/13 09:28:09;;;;;;;4.00;1.50;;;;;;;;;;4988292;28;20026;-87
2021/03/13 09:30:36;;;;;;;2.75;1.30;;;;;;;;;;4978739;28;20029;-86
2021/03/13 09:33:02;;;;;;;1.92;1.08;;;;;;;;;;4996641;28;20483;-86
2021/03/13 09:35:28;;;;;;;2.28;0.93;;;;;;;;;;4978758;28;20118;-87
2021/03/13 09:37:55;;;;;;;2.88;1.17;;;;;;;;;;4980554;28;20034;-88
2021/03/13 09:40:23;;;;;;;3.10;1.30;;;;;;;;;;4996655;28;20030;-88
2021/03/13 09:42:49;;;;;;;2.75;1.00;;;;;;;;;;4999192;28;20079;-81
2021/03/13 09:45:16;;;;;;;2.95;1.25;;;;;;;;;;4989718;28;20029;-90
2021/03/13 09:47:42;;;;;;;2.88;0.98;;;;;;;;;;4981498;28;20027;-87
2021/03/13 09:50:10;;;;;;;2.15;0.80;;;;;;;;;;4994421;28;20023;-85
2021/03/13 09:52:48;;;;;;;0.95;0.30;;;;;;;;;;5006938;28;20172;-86
2021/03/13 09:55:26;;;;;;;1.50;0.50;;;;;;;;;;4986221;28;20387;-85
2021/03/13 09:57:53;;;;;;;1.88;0.60;;;;;;;;;;5013355;28;20495;-88
2021/03/13 10:00:21;;;;;;;3.58;0.60;;;;;;;;;;4993632;28;20022;-89
2021/03/13 10:02:48;;;;;;;1.60;0.50;;;;;;;;;;4979043;28;20394;-89
2021/03/13 10:05:15;;;;;;;2.10;0.75;;;;;;;;;;5011605;28;20026;-83
2021/03/13 10:07:43;;;;;;;3.08;0.68;;;;;;;;;;4980906;28;20084;-82
2021/03/13 10:10:11;;;;;;;2.15;0.43;;;;;;;;;;4983803;28;20034;-87
2021/03/13 10:12:42;;;;;;;1.52;0.43;;;;;;;;;;4992303;28;20018;-83
2021/03/13 10:15:13;;;;;;;1.55;0.70;;;;;;;;;;4988760;28;20040;-84
2021/03/13 10:17:52;;;;;;;2.00;0.70;;;;;;;;;;4981719;28;20044;-85
2021/03/13 10:20:18;;;;;;;1.75;0.70;;;;;;;;;;4984145;28;20018;-87
2021/03/13 10:22:44;;;;;;;3.80;0.80;;;;;;;;;;4988358;28;20042;-86
2021/03/13 10:25:10;;;;;;;2.10;0.55;;;;;;;;;;4977632;28;20431;-86
2021/03/13 10:27:37;;;;;;;1.02;0.40;;;;;;;;;;4977654;28;20022;-87
2021/03/13 10:30:07;;;;;;;1.60;0.20;;;;;;;;;;4977552;28;20073;-85
2021/03/13 10:32:34;;;;;;;1.63;0.40;;;;;;;;;;4979064;28;20077;-82
2021/03/13 10:35:10;;;;;;;1.20;0.30;;;;;;;;;;4981268;28;20030;-87
2021/03/13 10:37:40;;;;;;;1.20;0.30;;;;;;;;;;4996805;28;20109;-85
2021/03/13 10:40:10;;;;;;;1.45;0.40;;;;;;;;;;4982830;28;20030;-81
2021/03/13 10:42:37;;;;;;;1.30;0.30;;;;;;;;;;4980183;28;20037;-86
2021/03/13 10:45:16;;;;;;;1.40;0.40;;;;;;;;;;4997037;28;20030;-88
2021/03/13 10:47:43;;;;;;;3.20;0.40;;;;;;;;;;4980342;28;20054;-89
2021/03/13 10:50:10;;;;;;;1.55;0.35;;;;;;;;;;4997377;28;20027;-87
2021/03/13 10:52:38;;;;;;;2.08;0.40;;;;;;;;;;4979213;28;20038;-87
2021/03/13 10:55:04;;;;;;;1.92;0.50;;;;;;;;;;4979834;28;20479;-87
2021/03/13 10:57:31;;;;;;;3.40;0.55;;;;;;;;;;4996899;28;20097;-87
2021/03/13 10:59:57;;;;;;;0.98;0.30;;;;;;;;;;4997281;28;20045;-86
2021/03/13 11:02:23;;;;;;;1.20;0.30;;;;;;;;;;4979658;28;20498;-90
2021/03/13 11:04:49;;;;;;;2.72;0.43;;;;;;;;;;4978253;28;20383;-86
2021/03/13 11:07:16;;;;;;;2.28;0.40;;;;;;;;;;4978922;28;20061;-87
2021/03/13 11:09:46;;;;;;;0.90;0.40;;;;;;;;;;4998846;28;20081;-82
2021/03/13 11:12:12;;;;;;;1.63;0.52;;;;;;;;;;4984416;28;20030;-86
2021/03/13 11:14:39;;;;;;;1.90;0.40;;;;;;;;;;5000673;28;20037;-89
2021/03/13 11:17:05;;;;;;;3.22;0.50;;;;;;;;;;4998669;28;20142;-86
2021/03/13 11:19:32;;;;;;;0.98;0.32;;;;;;;;;;4983698;28;20066;-86
2021/03/13 11:21:59;;;;;;;2.03;0.85;;;;;;;;;;4998889;28;20035;-87
2021/03/13 11:24:26;;;;;;;1.25;0.50;;;;;;;;;;4978131;28;20055;-86
2021/03/13 11:26:52;;;;;;;1.45;0.40;;;;;;;;;;4977914;28;20027;-85
2021/03/13 11:29:19;;;;;;;1.88;0.40;;;;;;;;;;4976517;28;20023;-80
2021/03/13 11:31:45;;;;;;;1.73;0.47;;;;;;;;;;4978772;28;20035;-90
2021/03/13 11:34:12;;;;;;;1.40;0.40;;;;;;;;;;4996961;28;20491;-84
2021/03/13 11:36:40;;;;;;;1.35;0.38;;;;;;;;;;4998076;28;20056;-91
2021/03/13 11:39:07;;;;;;;1.67;0.52;;;;;;;;;;4999730;28;20034;-86
2021/03/13 11:41:33;;;;;;;1.10;0.50;;;;;;;;;;4998189;28;20542;-82
2021/03/13 11:43:59;;;;;;;4.50;0.85;;;;;;;;;;4996055;28;20110;-81
2021/03/13 11:46:26;;;;;;;1.88;0.52;;;;;;;;;;4997112;28;20368;-83
2021/03/13 11:48:52;;;;;;;3.30;0.70;;;;;;;;;;4997621;28;20098;-83
2021/03/13 11:51:18;;;;;;;1.23;0.47;;;;;;;;;;4996463;28;20064;-81
2021/03/13 11:53:44;;;;;;;4.60;0.70;;;;;;;;;;4997224;28;20027;-83
2021/03/13 11:56:10;;;;;;;2.83;0.70;;;;;;;;;;4995884;28;20034;-79
2021/03/13 11:58:37;;;;;;;1.48;0.40;;;;;;;;;;4997562;28;20101;-85
2021/03/13 12:01:04;;;;;;;1.35;0.60;;;;;;;;;;4997601;28;20026;-84
2021/03/13 12:03:30;;;;;;;1.88;0.70;;;;;;;;;;4996683;28;20121;-87
2021/03/13 12:05:56;;;;;;;3.42;0.90;;;;;;;;;;4998723;28;20427;-81
2021/03/13 12:08:22;;;;;;;2.05;1.05;;;;;;;;;;4995815;28;20031;-88
2021/03/13 12:10:49;;;;;;;2.53;1.05;;;;;;;;;;4997091;28;20026;-82
2021/03/13 12:13:15;;;;;;;3.78;0.80;;;;;;;;;;4996367;28;20034;-85
2021/03/13 12:15:41;;;;;;;1.83;0.75;;;;;;;;;;4975943;28;20032;-84
2021/03/13 12:18:07;;;;;;;2.63;0.93;;;;;;;;;;4957977;29;20121;-80
2021/03/13 12:20:33;;;;;;;2.90;0.82;;;;;;;;;;4956678;28;20023;-80
2021/03/13 12:23:00;;;;;;;2.90;0.98;;;;;;;;;;4957553;29;20031;-83
2021/03/13 12:25:26;;;;;;;3.70;0.90;;;;;;;;;;4957335;29;20130;-85
2021/03/13 12:27:52;;;;;;;2.15;0.90;;;;;;;;;;4958253;29;20031;-86
2021/03/13 12:30:19;;;;;;;2.13;0.80;;;;;;;;;;4957939;29;20030;-85
2021/03/13 12:32:46;;;;;;;1.77;0.60;;;;;;;;;;4958467;29;20023;-90
2021/03/13 12:35:12;;;;;;;2.63;0.82;;;;;;;;;;4958837;29;20027;-85
2021/03/13 12:37:41;;;;;;;1.98;0.80;;;;;;;;;;4957670;29;20046;-85
2021/03/13 12:40:08;;;;;;;1.60;0.77;;;;;;;;;;4960813;29;20052;-85
2021/03/13 12:42:34;;;;;;;2.35;0.90;;;;;;;;;;4959083;29;20038;-84
2021/03/13 12:45:01;;;;;;;1.60;0.80;;;;;;;;;;4957282;29;20050;-87
2021/03/13 12:47:27;;;;;;;1.73;0.73;;;;;;;;;;4958654;29;20117;-82
2021/03/13 12:49:54;;;;;;;1.45;0.80;;;;;;;;;;4957786;29;20020;-85
2021/03/13 12:52:21;;;;;;;3.58;1.00;;;;;;;;;;4957987;29;20171;-85
2021/03/13 12:54:48;;;;;;;2.40;0.90;;;;;;;;;;4957989;29;20078;-87
2021/03/13 12:57:14;;;;;;;2.45;1.20;;;;;;;;;;4957494;29;20043;-86
2021/03/13 12:59:41;;;;;;;3.03;1.27;;;;;;;;;;4957361;29;20397;-86
2021/03/13 13:02:07;;;;;;;2.10;1.00;;;;;;;;;;4959664;29;20031;-86
2021/03/13 13:04:33;;;;;;;2.00;1.02;;;;;;;;;;4956730;29;20525;-85
2021/03/13 13:07:00;;;;;;;3.50;0.82;;;;;;;;;;4964199;28;20110;-89
2021/03/13 13:09:26;;;;;;;2.53;1.05;;;;;;;;;;4968515;28;20049;-86
2021/03/13 13:11:52;;;;;;;2.40;1.05;;;;;;;;;;4966605;28;20456;-87
2021/03/13 13:14:18;;;;;;;3.13;1.10;;;;;;;;;;4959064;29;20020;-88
2021/03/13 13:16:44;;;;;;;3.35;1.30;;;;;;;;;;4962099;29;20039;-87
2021/03/13 13:19:11;;;;;;;2.53;1.20;;;;;;;;;;4963311;29;20023;-92
2021/03/13 13:21:37;;;;;;;3.28;1.30;;;;;;;;;;4960987;29;20145;-90
2021/03/13 13:24:04;;;;;;;3.97;1.30;;;;;;;;;;4960944;29;20050;-84
2021/03/13 13:26:31;;;;;;;2.92;1.20;;;;;;;;;;4963047;29;20031;-88
2021/03/13 13:28:57;;;;;;;3.45;1.40;;;;;;;;;;4974673;28;20027;-92
2021/03/13 13:31:25;;;;;;;4.00;1.50;;;;;;;;;;4988445;28;20035;-80
2021/03/13 13:33:51;;;;;;;2.92;1.35;;;;;;;;;;4991191;28;20050;-79
2021/03/13 13:36:19;;;;;;;2.78;1.15;;;;;;;;;;4986859;28;20039;-86
2021/03/13 13:38:45;;;;;;;2.13;1.10;;;;;;;;;;4983095;28;20031;-86
2021/03/13 13:41:11;;;;;;;2.28;1.27;;;;;;;;;;4974317;28;20062;-83
2021/03/13 13:43:38;;;;;;;2.67;1.20;;;;;;;;;;4962381;29;20027;-89
2021/03/13 13:46:05;;;;;;;2.75;1.10;;;;;;;;;;4964365;29;20065;-86
2021/03/13 13:48:31;;;;;;;2.90;1.38;;;;;;;;;;4967417;29;20023;-88
2021/03/13 13:50:57;;;;;;;2.67;1.27;;;;;;;;;;4963631;29;20027;-92
2021/03/13 13:53:23;;;;;;;2.58;1.00;;;;;;;;;;4964524;29;20038;-86
2021/03/13 13:55:49;;;;;;;2.75;1.40;;;;;;;;;;4958771;29;20034;-86
2021/03/13 13:58:16;;;;;;;3.20;1.20;;;;;;;;;;4959582;29;20032;-87
2021/03/13 14:00:45;;;;;;;3.22;1.40;;;;;;;;;;4967514;29;20087;-87
2021/03/13 14:03:21;;;;;;;3.30;1.55;;;;;;;;;;4959635;28;20498;-93
2021/03/13 14:05:47;;;;;;;4.35;1.20;;;;;;;;;;4983050;28;20045;-90
2021/03/13 14:08:13;;;;;;;2.55;1.17;;;;;;;;;;4979916;28;20045;-92
2021/03/13 14:10:39;;;;;;;3.85;1.50;;;;;;;;;;4981479;28;20034;-92
2021/03/13 14:13:06;;;;;;;2.72;1.23;;;;;;;;;;4982616;28;20026;-91
2021/03/13 14:15:32;;;;;;;3.05;1.25;;;;;;;;;;4981520;28;20019;-81
2021/03/13 14:17:59;;;;;;;1.80;0.93;;;;;;;;;;4979429;28;20041;-90
2021/03/13 14:20:25;;;;;;;3.55;1.20;;;;;;;;;;4981472;28;20034;-90
2021/03/13 14:22:52;;;;;;;2.53;1.15;;;;;;;;;;4983715;28;20031;-90
2021/03/13 14:25:20;;;;;;;2.83;1.20;;;;;;;;;;4981969;28;20050;-91
2021/03/13 14:27:47;;;;;;;3.00;1.40;;;;;;;;;;4983973;28;20011;-92
2021/03/13 14:30:14;;;;;;;4.03;1.45;;;;;;;;;;4983229;28;20031;-93
2021/03/13 14:32:41;;;;;;;2.78;1.17;;;;;;;;;;4981250;28;20027;-91
2021/03/13 14:35:10;;;;;;;2.92;0.90;;;;;;;;;;4983448;28;20034;-91
2021/03/13 14:37:37;;;;;;;3.28;1.35;;;;;;;;;;4982422;28;20038;-80
2021/03/13 14:40:03;;;;;;;3.67;1.10;;;;;;;;;;4981423;28;20023;-82
2021/03/13 14:42:29;;;;;;;7.85;2.20;;;;;;;;;;4981302;28;20483;-92
2021/03/13 14:44:56;;;;;;;2.60;1.23;;;;;;;;;;4985011;28;20055;-79